ADDS TAF Board (Experimental) INFO

IDs: Format: Expanded Condensed

Updated at: 1629 UTC 02 Oct 2014

KFLL - Ft Lauderdale-Hollyw, FL, US

Issued at 1520 UTC 02 Oct 2014
Time1553Z02/17Z02/18Z02/19Z02/20Z02/21Z02/22Z02/23Z03/00Z03/01Z03/02Z03/03Z03/04Z03/05Z
TypeOBSPRVLPRVLPRVLPRVLPRVLPRVLPRVLPRVLPRVLPRVLPRVLPRVLPRVL
VIS10>6>6>6>6>6>6>6>6>6>6>6>6>6
CIG34--------------250250250250250250
CoverBKNSCTSCTSCTSCTSCTSCTSCTBKNBKNBKNBKNBKNBKN
FltCat--VFRVFRVFRVFRVFRVFRVFRVFRVFRVFRVFRVFRVFR
WX------VCTSVCTSVCTSVCTSVCTSVCSHVCSHVCSHVCSHVCSHVCSH
WDir2602602605050505050404040404040
WSpd55577777555555
WGst----------------------------
R10/28
XWnd-1-1-144444444444
HWnd-5-5-555555333333
Raw TAF
KFLL 021520Z 0215/0312 26005KT P6SM FEW026 SCT060
  FM021900 05007KT P6SM VCTS SCT025CB SCT060
  FM030000 04005KT P6SM VCSH SCT030 SCT100 BKN250


Raw METAR
KFLL 021553Z 26005KT 10SM BKN034 31/23 A3002 RMK AO2 SLP165 T03110233

TAF Board Legend

Hazard VFR MVFR IFR LIFR
Visibility (sm) >5 3≤X≤5 1≤X<3 <1
Ceiling (100 ft) >30 10≤X≤30 5≤X<10 <5
Wind Speed (kt) <10 10≤X<20 20≤X<30 ≥30
Wind Gust (kt) <15 15≤X<25 25≤X<35 ≥35
Weather No Wx Reported VCTS,-TS,-FZRA TS,FZRA +TS,+FZRA


Page loaded:  16:29 UTC  |   09:29 AM Pacific  |   10:29 AM Mountain  |   11:29 AM Central  |   12:29 PM Eastern

 

ADVISORIES

FORECASTS

FORECASTS

OBSERVATIONS

USER TOOLS

ABOUT US